createdAt,value
2017-12-02T00:00:41.493Z,81.10
2017-12-02T00:03:08.742Z,81.10
2017-12-02T00:05:35.132Z,81.10
2017-12-02T00:08:02.216Z,81.60
2017-12-02T00:10:28.817Z,81.60
2017-12-02T00:12:55.153Z,80.90
2017-12-02T00:15:22.188Z,81.20
2017-12-02T00:17:48.521Z,81.20
2017-12-02T00:20:14.871Z,82.10
2017-12-02T00:22:41.569Z,82.50
2017-12-02T00:25:08.705Z,83.20
2017-12-02T00:27:35.072Z,81.50
2017-12-02T00:30:01.415Z,79.80
2017-12-02T00:32:28.557Z,81.50
2017-12-02T00:34:54.888Z,81.10
2017-12-02T00:37:21.260Z,81.00
2017-12-02T00:39:48.311Z,81.50
2017-12-02T00:42:15.776Z,82.20
2017-12-02T00:44:42.928Z,82.50
2017-12-02T00:47:10.287Z,83.20
2017-12-02T00:49:37.327Z,83.30
2017-12-02T00:52:06.343Z,82.70
2017-12-02T00:54:33.978Z,83.50
2017-12-02T00:57:02.522Z,83.60
2017-12-02T00:59:32.490Z,83.70
2017-12-02T01:02:02.719Z,84.50
2017-12-02T01:04:31.691Z,83.80
2017-12-02T01:06:59.159Z,81.90
2017-12-02T01:09:28.068Z,82.90
2017-12-02T01:11:55.836Z,82.90
2017-12-02T01:14:25.404Z,81.60
2017-12-02T01:16:54.983Z,81.30
2017-12-02T01:19:24.530Z,81.30
2017-12-02T01:21:52.497Z,81.50
2017-12-02T01:24:22.952Z,81.20
2017-12-02T01:26:50.535Z,81.20
2017-12-02T01:29:19.762Z,81.40
2017-12-02T01:31:49.814Z,81.70
2017-12-02T01:34:19.838Z,81.60
2017-12-02T01:36:48.898Z,82.20
2017-12-02T01:39:18.300Z,82.20
2017-12-02T01:41:47.755Z,83.00
2017-12-02T01:44:17.599Z,82.90
2017-12-02T01:46:46.525Z,82.90
2017-12-02T01:49:15.574Z,83.60
2017-12-02T01:51:43.391Z,82.70
2017-12-02T01:54:11.750Z,80.80
2017-12-02T01:56:39.145Z,80.90
2017-12-02T01:59:07.785Z,81.40
2017-12-02T02:01:37.201Z,82.70
2017-12-02T02:04:04.607Z,83.10
2017-12-02T02:06:30.943Z,83.80
2017-12-02T02:08:58.211Z,83.30
2017-12-02T02:11:25.282Z,83.10
2017-12-02T02:13:52.488Z,83.50
2017-12-02T02:16:19.140Z,83.50
2017-12-02T02:18:45.476Z,83.10
2017-12-02T02:21:13.414Z,82.80
2017-12-02T02:23:40.197Z,82.70
2017-12-02T02:26:07.660Z,82.80
2017-12-02T02:28:34.004Z,82.40
2017-12-02T02:31:01.041Z,82.60
2017-12-02T02:33:28.100Z,82.70
2017-12-02T02:35:54.427Z,83.30
2017-12-02T02:38:21.540Z,83.60
2017-12-02T02:40:47.863Z,83.10
2017-12-02T02:43:16.103Z,81.90
2017-12-02T02:45:42.440Z,81.90
2017-12-02T02:48:09.527Z,82.60
2017-12-02T02:50:36.606Z,82.30
2017-12-02T02:53:02.943Z,82.20
2017-12-02T02:55:30.032Z,82.90
2017-12-02T02:57:57.400Z,82.60
2017-12-02T03:00:23.740Z,82.50
2017-12-02T03:02:50.079Z,82.70
2017-12-02T03:05:16.681Z,82.40
2017-12-02T03:07:43.976Z,82.50
2017-12-02T03:10:10.439Z,83.10
2017-12-02T03:12:37.872Z,81.50
2017-12-02T03:15:04.241Z,81.50
2017-12-02T03:17:31.335Z,81.90
2017-12-02T03:19:59.144Z,81.10
2017-12-02T03:22:25.526Z,81.20
2017-12-02T03:24:52.731Z,81.60
2017-12-02T03:27:19.847Z,82.50
2017-12-02T03:29:46.212Z,81.80
2017-12-02T03:32:13.372Z,81.40
2017-12-02T03:34:39.740Z,82.80
2017-12-02T03:37:06.860Z,80.90
2017-12-02T03:39:34.223Z,80.90
2017-12-02T03:42:01.495Z,80.60
2017-12-02T03:44:28.641Z,80.00
2017-12-02T03:46:55.894Z,79.90
2017-12-02T03:49:22.305Z,81.20
2017-12-02T03:51:48.695Z,80.70
2017-12-02T03:54:15.316Z,80.50
2017-12-02T03:56:41.711Z,80.40
2017-12-02T03:59:08.903Z,79.90
2017-12-02T04:01:35.295Z,79.80
2017-12-02T04:04:01.700Z,80.00
2017-12-02T04:06:28.427Z,79.20
2017-12-02T04:08:54.799Z,79.70
2017-12-02T04:11:22.004Z,79.90
2017-12-02T04:13:48.685Z,79.90
2017-12-02T04:16:15.052Z,79.80
2017-12-02T04:18:41.416Z,79.70
2017-12-02T04:21:08.809Z,79.70
2017-12-02T04:23:36.055Z,79.30
2017-12-02T04:26:03.311Z,79.00
2017-12-02T04:28:29.699Z,79.80
2017-12-02T04:30:56.094Z,79.90
2017-12-02T04:33:23.252Z,79.80
2017-12-02T04:35:49.601Z,80.40
2017-12-02T04:38:16.660Z,80.30
2017-12-02T04:40:43.799Z,81.20
2017-12-02T04:43:10.947Z,80.50
2017-12-02T04:45:38.213Z,80.50
2017-12-02T04:48:05.359Z,79.90
2017-12-02T04:50:31.719Z,80.30
2017-12-02T04:52:58.850Z,79.70
2017-12-02T04:55:25.596Z,79.80
2017-12-02T04:57:53.158Z,80.20
2017-12-02T05:00:19.516Z,80.40
2017-12-02T05:02:45.971Z,80.00
2017-12-02T05:05:13.396Z,78.40
2017-12-02T05:07:40.332Z,78.40
2017-12-02T05:10:06.863Z,77.90
2017-12-02T05:12:33.589Z,77.70
2017-12-02T05:14:59.927Z,78.30
2017-12-02T05:17:26.311Z,78.60
2017-12-02T05:19:53.663Z,78.50
2017-12-02T05:22:20.039Z,78.50
2017-12-02T05:24:47.876Z,78.80
2017-12-02T05:30:08.484Z,79.20
2017-12-02T05:32:35.535Z,78.60
2017-12-02T05:35:02.588Z,78.50
2017-12-02T05:37:28.959Z,78.70
2017-12-02T05:39:57.011Z,77.40
2017-12-02T05:42:24.263Z,77.20
2017-12-02T05:44:51.282Z,77.30
2017-12-02T05:47:18.452Z,77.80
2017-12-02T05:49:44.812Z,77.90
2017-12-02T05:52:11.188Z,77.10
2017-12-02T05:54:37.870Z,78.00
2017-12-02T05:57:04.311Z,77.40
2017-12-02T05:59:31.585Z,77.40
2017-12-02T06:01:57.964Z,77.20
2017-12-02T06:04:24.367Z,77.40
2017-12-02T06:06:50.788Z,77.60
2017-12-02T06:09:17.143Z,77.20
2017-12-02T06:11:43.601Z,78.30
2017-12-02T06:14:11.031Z,77.30
2017-12-02T06:16:38.499Z,77.20
2017-12-02T06:19:06.327Z,77.00
2017-12-02T06:21:32.709Z,76.90
2017-12-02T06:23:59.121Z,76.80
2017-12-02T06:26:26.198Z,77.00
2017-12-02T06:28:53.246Z,77.20
2017-12-02T06:31:20.300Z,76.70
2017-12-02T06:33:47.351Z,75.50
2017-12-02T06:36:13.724Z,75.70
2017-12-02T06:38:41.660Z,77.00
2017-12-02T06:41:09.238Z,77.00
2017-12-02T06:43:36.691Z,76.60
2017-12-02T06:46:03.069Z,76.30
2017-12-02T06:48:31.019Z,74.80
2017-12-02T06:50:57.387Z,74.80
2017-12-02T06:53:24.591Z,76.70
2017-12-02T06:55:51.751Z,76.20
2017-12-02T06:58:18.911Z,76.00
2017-12-02T07:00:46.448Z,75.80
2017-12-02T07:03:13.747Z,76.00
2017-12-02T07:05:40.151Z,75.80
2017-12-02T07:08:06.564Z,75.60
2017-12-02T07:10:33.350Z,75.10
2017-12-02T07:13:00.615Z,76.20
2017-12-02T07:15:27.764Z,76.20
2017-12-02T07:17:54.175Z,75.60
2017-12-02T07:20:20.571Z,75.00
2017-12-02T07:22:47.747Z,74.60
2017-12-02T07:25:14.895Z,74.60
2017-12-02T07:27:43.499Z,74.00
2017-12-02T07:30:10.094Z,74.20
2017-12-02T07:32:37.659Z,74.40
2017-12-02T07:35:04.895Z,75.10
2017-12-02T07:37:31.978Z,74.80
2017-12-02T07:39:59.207Z,74.60
2017-12-02T07:42:26.567Z,74.30
2017-12-02T07:44:52.976Z,73.30
2017-12-02T07:47:20.161Z,74.60
2017-12-02T07:49:47.276Z,75.30
2017-12-02T07:52:13.654Z,74.50
2017-12-02T07:54:41.012Z,74.10
2017-12-02T07:57:07.380Z,73.60
2017-12-02T07:59:34.495Z,74.70
2017-12-02T08:02:00.897Z,74.40
2017-12-02T08:04:27.259Z,72.90
2017-12-02T08:06:53.761Z,72.20
2017-12-02T08:09:21.588Z,72.90
2017-12-02T08:11:48.850Z,73.00
2017-12-02T08:14:15.237Z,73.30
2017-12-02T08:16:42.348Z,73.60
2017-12-02T08:19:08.720Z,72.20
2017-12-02T08:21:35.935Z,72.50
2017-12-02T08:24:03.371Z,71.70
2017-12-02T08:26:30.505Z,70.60
2017-12-02T08:28:56.891Z,70.20
2017-12-02T08:31:24.356Z,70.10
2017-12-02T08:33:51.606Z,70.40
2017-12-02T08:36:17.980Z,70.90
2017-12-02T08:38:45.855Z,72.00
2017-12-02T08:41:12.230Z,72.00
2017-12-02T08:43:39.439Z,70.90
2017-12-02T08:46:06.577Z,69.90
2017-12-02T08:48:33.822Z,69.80
2017-12-02T08:51:01.703Z,70.40
2017-12-02T08:53:28.169Z,70.40
2017-12-02T08:55:55.999Z,70.50
2017-12-02T08:58:22.396Z,70.40
2017-12-02T09:00:49.491Z,68.40
2017-12-02T09:03:16.004Z,69.20
2017-12-02T09:05:43.148Z,69.40
2017-12-02T09:08:09.551Z,70.30
2017-12-02T09:10:37.403Z,70.70
2017-12-02T09:13:03.787Z,70.70
2017-12-02T09:15:30.157Z,71.70
2017-12-02T09:17:56.567Z,71.70
2017-12-02T09:20:23.670Z,73.00
2017-12-02T09:22:50.044Z,71.50
2017-12-02T09:25:17.166Z,71.30
2017-12-02T09:27:43.572Z,71.30
2017-12-02T09:30:10.851Z,70.70
2017-12-02T09:32:38.258Z,68.10
2017-12-02T09:35:04.643Z,68.40
2017-12-02T09:37:31.756Z,67.00
2017-12-02T09:39:58.747Z,68.00
2017-12-02T09:42:26.111Z,70.10
2017-12-02T09:44:52.492Z,68.20
2017-12-02T09:47:20.262Z,70.10
2017-12-02T09:49:48.191Z,68.60
2017-12-02T09:52:14.556Z,68.40
2017-12-02T09:54:40.961Z,72.60
2017-12-02T09:57:07.327Z,69.10
2017-12-02T09:59:34.553Z,66.20
2017-12-02T10:02:01.717Z,66.10
2017-12-02T10:04:28.081Z,65.60
2017-12-02T10:06:56.846Z,70.20
2017-12-02T10:09:24.204Z,69.60
2017-12-02T10:11:50.602Z,66.30
2017-12-02T10:14:16.953Z,69.60
2017-12-02T10:16:45.318Z,67.80
2017-12-02T10:19:12.424Z,67.50
2017-12-02T10:21:40.295Z,67.00
2017-12-02T10:24:06.660Z,66.90
2017-12-02T10:26:34.152Z,67.50
2017-12-02T10:29:02.584Z,62.90
2017-12-02T10:31:29.838Z,62.90
2017-12-02T10:33:56.225Z,64.50
2017-12-02T10:36:22.603Z,65.50
2017-12-02T10:38:49.867Z,64.80
2017-12-02T10:41:16.251Z,64.80
2017-12-02T10:43:43.358Z,64.60
2017-12-02T10:46:09.737Z,64.80
2017-12-02T10:48:37.059Z,64.90
2017-12-02T10:51:04.225Z,66.40
2017-12-02T10:53:30.603Z,65.10
2017-12-02T10:55:57.040Z,65.80
2017-12-02T10:58:23.725Z,64.60
2017-12-02T11:00:50.089Z,64.50
2017-12-02T11:03:16.559Z,63.90
2017-12-02T11:05:43.884Z,63.20
2017-12-02T11:08:10.236Z,64.60
2017-12-02T11:10:38.067Z,63.30
2017-12-02T11:13:04.424Z,64.30
2017-12-02T11:15:31.771Z,63.00
2017-12-02T11:17:58.878Z,62.60
2017-12-02T11:20:26.175Z,62.50
2017-12-02T11:22:52.539Z,62.40
2017-12-02T11:25:19.678Z,62.00
2017-12-02T11:27:46.015Z,61.40
2017-12-02T11:30:12.366Z,62.00
2017-12-02T11:32:39.495Z,62.30
2017-12-02T11:35:05.853Z,61.70
2017-12-02T11:37:33.192Z,61.70
2017-12-02T11:40:00.755Z,63.00
2017-12-02T11:42:28.155Z,63.10
2017-12-02T11:44:56.094Z,61.80
2017-12-02T11:47:24.479Z,61.70
2017-12-02T11:49:50.815Z,61.70
2017-12-02T11:52:17.129Z,61.50
2017-12-02T11:54:44.606Z,62.40
2017-12-02T11:57:11.660Z,62.30
2017-12-02T11:59:38.919Z,62.20
2017-12-02T12:02:06.380Z,62.50
2017-12-02T12:04:33.535Z,62.30
2017-12-02T12:06:59.913Z,62.70
2017-12-02T12:09:27.127Z,60.00
2017-12-02T12:11:54.198Z,60.40
2017-12-02T12:14:20.572Z,60.40
2017-12-02T12:16:47.411Z,61.50
2017-12-02T12:19:14.745Z,60.20
2017-12-02T12:21:41.115Z,60.10
2017-12-02T12:24:08.321Z,61.10
2017-12-02T12:26:34.655Z,58.40
2017-12-02T12:29:00.983Z,59.90
2017-12-02T12:31:28.458Z,61.70
2017-12-02T12:33:54.794Z,60.50
2017-12-02T12:36:21.111Z,59.10
2017-12-02T12:38:48.180Z,61.60
2017-12-02T12:41:14.519Z,58.20
2017-12-02T12:43:41.671Z,61.70
2017-12-02T12:46:08.031Z,59.50
2017-12-02T12:48:35.060Z,60.10
2017-12-02T12:51:01.944Z,60.20
2017-12-02T12:53:29.009Z,60.40
2017-12-02T12:55:56.444Z,62.10
2017-12-02T12:58:23.511Z,60.00
2017-12-02T13:00:51.348Z,58.80
2017-12-02T13:03:18.606Z,58.60
2017-12-02T13:05:44.952Z,59.10
2017-12-02T13:08:11.300Z,59.40
2017-12-02T13:10:38.230Z,60.30
2017-12-02T13:13:04.562Z,61.70
2017-12-02T13:15:30.887Z,62.30
2017-12-02T13:17:57.551Z,61.40
2017-12-02T13:20:24.596Z,61.10
2017-12-02T13:22:50.956Z,62.10
2017-12-02T13:25:17.319Z,63.00
2017-12-02T13:27:44.735Z,63.00
2017-12-02T13:30:11.071Z,63.00
2017-12-02T13:32:39.044Z,63.10
2017-12-02T13:35:05.996Z,64.40
2017-12-02T13:37:32.303Z,63.50
2017-12-02T13:39:59.334Z,63.70
2017-12-02T13:42:26.740Z,63.90
2017-12-02T13:44:53.104Z,65.10
2017-12-02T13:47:20.332Z,64.70
2017-12-02T13:49:46.698Z,64.80
2017-12-02T13:52:13.828Z,66.50
2017-12-02T13:54:40.972Z,64.80
2017-12-02T13:57:08.247Z,64.80
2017-12-02T13:59:35.315Z,65.40
2017-12-02T14:02:03.280Z,66.30
2017-12-02T14:04:31.182Z,65.30
2017-12-02T14:06:58.495Z,65.20
2017-12-02T14:09:24.891Z,65.90
2017-12-02T14:11:51.893Z,66.00
2017-12-02T14:14:19.351Z,66.40
2017-12-02T14:16:46.429Z,67.20
2017-12-02T14:19:14.191Z,67.20
2017-12-02T14:21:41.279Z,68.50
2017-12-02T14:24:07.607Z,68.20
2017-12-02T14:26:34.923Z,68.40
2017-12-02T14:29:02.037Z,68.40
2017-12-02T14:31:29.365Z,68.90
2017-12-02T14:33:56.439Z,69.80
2017-12-02T14:36:22.776Z,69.80
2017-12-02T14:38:50.199Z,69.30
2017-12-02T14:41:16.550Z,70.50
2017-12-02T14:43:44.294Z,71.50
2017-12-02T14:46:11.403Z,70.90
2017-12-02T14:48:38.497Z,70.80
2017-12-02T14:51:04.831Z,71.30
2017-12-02T14:53:31.153Z,71.30
2017-12-02T14:55:58.428Z,71.00
2017-12-02T14:58:25.689Z,70.70
2017-12-02T15:00:52.025Z,70.50
2017-12-02T15:03:18.439Z,70.70
2017-12-02T15:05:45.544Z,70.90
2017-12-02T15:08:12.615Z,70.50
2017-12-02T15:10:38.957Z,70.40
2017-12-02T15:13:05.639Z,70.60
2017-12-02T15:15:32.804Z,70.30
2017-12-02T15:17:59.143Z,70.70
2017-12-02T15:20:25.580Z,71.80
2017-12-02T15:22:53.251Z,71.40
2017-12-02T15:25:20.219Z,70.80
2017-12-02T15:27:48.055Z,71.00
2017-12-02T15:30:14.379Z,71.00
2017-12-02T15:32:41.455Z,70.80
2017-12-02T15:35:07.791Z,71.10
2017-12-02T15:37:34.268Z,70.40
2017-12-02T15:40:02.132Z,70.60
2017-12-02T15:42:30.287Z,70.70
2017-12-02T15:44:56.782Z,70.70
2017-12-02T15:47:23.980Z,70.60
2017-12-02T15:49:50.307Z,71.40
2017-12-02T15:52:17.520Z,71.20
2017-12-02T15:54:44.635Z,71.90
2017-12-02T15:57:11.020Z,72.70
2017-12-02T15:59:37.385Z,72.80
2017-12-02T16:02:04.655Z,72.10
2017-12-02T16:04:32.007Z,72.30
2017-12-02T16:06:58.389Z,72.40
2017-12-02T16:09:25.695Z,72.70
2017-12-02T16:11:53.238Z,72.70
2017-12-02T16:14:20.316Z,73.40
2017-12-02T16:16:47.729Z,73.10
2017-12-02T16:19:14.828Z,71.80
2017-12-02T16:21:41.182Z,71.80
2017-12-02T16:24:07.567Z,71.40
2017-12-02T16:26:33.910Z,71.90
2017-12-02T16:29:01.591Z,73.70
2017-12-02T16:31:29.183Z,74.20
2017-12-02T16:33:55.524Z,74.00
2017-12-02T16:36:21.904Z,74.70
2017-12-02T16:38:49.727Z,74.90
2017-12-02T16:41:16.076Z,74.90
2017-12-02T16:43:43.428Z,75.20
2017-12-02T16:46:11.185Z,75.40
2017-12-02T16:48:38.459Z,75.30
2017-12-02T16:51:05.507Z,75.50
2017-12-02T16:53:31.823Z,75.30
2017-12-02T16:55:58.211Z,76.30
2017-12-02T16:58:25.650Z,76.40
2017-12-02T17:00:52.691Z,76.40
2017-12-02T17:03:19.051Z,76.40
2017-12-02T17:05:46.207Z,77.00
2017-12-02T17:08:12.571Z,77.10
2017-12-02T17:10:39.678Z,78.10
2017-12-02T17:13:08.467Z,76.90
2017-12-02T17:15:34.803Z,77.00
2017-12-02T17:18:01.964Z,76.70
2017-12-02T17:20:28.320Z,77.50
2017-12-02T17:22:55.423Z,78.50
2017-12-02T17:25:22.503Z,78.40
2017-12-02T17:27:48.833Z,78.70
2017-12-02T17:30:15.220Z,78.20
2017-12-02T17:32:43.273Z,77.40
2017-12-02T17:35:09.615Z,77.50
2017-12-02T17:37:37.201Z,78.10
2017-12-02T17:40:05.172Z,77.50
2017-12-02T17:42:33.214Z,77.20
2017-12-02T17:45:00.153Z,77.20
2017-12-02T17:47:27.720Z,77.00
2017-12-02T17:49:54.774Z,77.30
2017-12-02T17:52:21.107Z,77.50
2017-12-02T17:54:47.457Z,76.80
2017-12-02T17:57:14.699Z,76.90
2017-12-02T17:59:41.753Z,77.40
2017-12-02T18:02:09.607Z,76.20
2017-12-02T18:04:35.996Z,76.20
2017-12-02T18:07:04.241Z,76.50
2017-12-02T18:09:31.295Z,76.50
2017-12-02T18:11:57.633Z,76.70
2017-12-02T18:14:23.964Z,77.90
2017-12-02T18:16:50.335Z,77.30
2017-12-02T18:19:17.411Z,77.70
2017-12-02T18:21:43.871Z,77.70
2017-12-02T18:24:10.951Z,77.20
2017-12-02T18:26:37.331Z,76.30
2017-12-02T18:29:04.398Z,76.60
2017-12-02T18:31:31.599Z,76.50
2017-12-02T18:33:57.936Z,77.40
2017-12-02T18:36:24.263Z,77.60
2017-12-02T18:38:51.637Z,78.60
2017-12-02T18:41:20.319Z,79.00
2017-12-02T18:43:47.372Z,78.20
2017-12-02T18:46:14.449Z,78.60
2017-12-02T18:48:42.405Z,78.10
2017-12-02T18:51:08.805Z,78.10
2017-12-02T18:53:36.100Z,78.10
2017-12-02T18:56:03.350Z,78.50
2017-12-02T18:58:29.711Z,78.10
2017-12-02T19:00:56.831Z,78.30
2017-12-02T19:03:24.310Z,78.10
2017-12-02T19:05:51.566Z,77.90
2017-12-02T19:08:19.388Z,77.80
2017-12-02T19:10:45.715Z,77.80
2017-12-02T19:13:13.335Z,76.50
2017-12-02T19:15:39.693Z,76.50
2017-12-02T19:18:06.868Z,78.00
2017-12-02T19:20:34.903Z,77.20
2017-12-02T19:23:01.231Z,77.20
2017-12-02T19:25:27.566Z,77.70
2017-12-02T19:27:54.219Z,78.00
2017-12-02T19:30:21.583Z,77.30
2017-12-02T19:32:48.735Z,77.70
2017-12-02T19:35:15.071Z,79.20
2017-12-02T19:37:41.406Z,78.60
2017-12-02T19:40:08.431Z,78.30
2017-12-02T19:42:36.441Z,78.70
2017-12-02T19:45:03.692Z,79.20
2017-12-02T19:47:31.564Z,79.40
2017-12-02T19:49:57.935Z,79.40
2017-12-02T19:52:25.876Z,79.00
2017-12-02T19:54:52.247Z,79.00
2017-12-02T19:57:19.353Z,78.70
2017-12-02T19:59:45.747Z,78.60
2017-12-02T20:02:12.143Z,78.60
2017-12-02T20:04:39.198Z,78.00
2017-12-02T20:07:05.591Z,78.30
2017-12-02T20:09:32.703Z,77.90
2017-12-02T20:11:59.823Z,77.90
2017-12-02T20:14:26.188Z,77.90
2017-12-02T20:16:53.639Z,79.00
2017-12-02T20:19:21.507Z,79.40
2017-12-02T20:21:47.908Z,79.40
2017-12-02T20:24:14.239Z,80.00
2017-12-02T20:26:40.863Z,79.80
2017-12-02T20:29:07.952Z,79.60
2017-12-02T20:31:35.159Z,79.60
2017-12-02T20:34:02.288Z,80.10
2017-12-02T20:36:28.607Z,80.00
2017-12-02T20:38:55.680Z,79.70
2017-12-02T20:41:23.181Z,79.80
2017-12-02T20:43:51.015Z,80.00
2017-12-02T20:46:17.355Z,80.00
2017-12-02T20:48:44.809Z,78.80
2017-12-02T20:51:11.972Z,78.50
2017-12-02T20:53:38.320Z,79.00
2017-12-02T20:56:04.671Z,79.00
2017-12-02T20:58:32.407Z,79.00
2017-12-02T21:00:59.566Z,78.90
2017-12-02T21:03:25.904Z,79.40
2017-12-02T21:05:52.243Z,79.60
2017-12-02T21:08:18.879Z,79.60
2017-12-02T21:10:45.203Z,79.60
2017-12-02T21:13:11.624Z,79.30
2017-12-02T21:15:38.710Z,80.10
2017-12-02T21:18:06.069Z,79.70
2017-12-02T21:20:32.395Z,80.30
2017-12-02T21:22:58.752Z,79.70
2017-12-02T21:25:25.491Z,79.80
2017-12-02T21:27:51.877Z,79.30
2017-12-02T21:30:18.343Z,79.60
2017-12-02T21:32:45.504Z,79.10
2017-12-02T21:35:11.860Z,78.50
2017-12-02T21:37:38.193Z,78.80
2017-12-02T21:40:05.246Z,79.90
2017-12-02T21:42:32.591Z,79.60
2017-12-02T21:44:58.975Z,79.60
2017-12-02T21:47:27.019Z,79.30
2017-12-02T21:49:53.966Z,79.30
2017-12-02T21:52:20.340Z,79.00
2017-12-02T21:54:48.183Z,78.40
2017-12-02T21:57:16.017Z,78.90
2017-12-02T21:59:43.512Z,78.90
2017-12-02T22:02:09.865Z,79.30
2017-12-02T22:04:37.611Z,80.20
2017-12-02T22:07:03.958Z,79.80
2017-12-02T22:09:31.084Z,79.90
2017-12-02T22:11:57.505Z,80.00
2017-12-02T22:14:24.880Z,79.60
2017-12-02T22:16:51.299Z,79.40
2017-12-02T22:19:17.711Z,79.40
2017-12-02T22:21:45.199Z,79.50
2017-12-02T22:24:11.555Z,79.40
2017-12-02T22:26:38.028Z,78.90
2017-12-02T22:29:05.180Z,79.00
2017-12-02T22:31:34.172Z,78.20
2017-12-02T22:34:00.559Z,78.20
2017-12-02T22:36:27.977Z,78.10
2017-12-02T22:38:55.023Z,78.00
2017-12-02T22:41:21.405Z,77.20
2017-12-02T22:43:48.511Z,77.00
2017-12-02T22:46:15.871Z,77.40
2017-12-02T22:48:42.599Z,77.60
2017-12-02T22:51:09.775Z,78.00
2017-12-02T22:53:36.749Z,78.40
2017-12-02T22:56:05.014Z,78.80
2017-12-02T22:58:31.367Z,78.80
2017-12-02T23:00:59.211Z,78.80
2017-12-02T23:03:25.574Z,78.70
2017-12-02T23:05:52.676Z,80.00
2017-12-02T23:08:19.347Z,79.80
2017-12-02T23:10:46.712Z,80.40
2017-12-02T23:13:13.079Z,79.40
2017-12-02T23:15:40.202Z,79.60
2017-12-02T23:18:07.667Z,79.40
2017-12-02T23:20:34.014Z,79.40
2017-12-02T23:23:00.471Z,79.00
2017-12-02T23:25:27.900Z,79.20
2017-12-02T23:27:54.247Z,79.10
2017-12-02T23:30:21.291Z,79.60
2017-12-02T23:32:48.955Z,78.60
2017-12-02T23:35:16.005Z,78.60
2017-12-02T23:37:42.334Z,78.80
2017-12-02T23:40:09.500Z,78.80
2017-12-02T23:42:36.761Z,78.80
2017-12-02T23:45:04.012Z,78.90
2017-12-02T23:47:31.172Z,79.10
2017-12-02T23:49:57.555Z,79.20
2017-12-02T23:52:24.862Z,79.10
2017-12-02T23:54:51.926Z,79.00
2017-12-02T23:57:19.012Z,78.80
2017-12-02T23:59:46.126Z,78.40
